createdAt,value
2024-05-09T00:00:40.032Z,13.40
2024-05-09T00:03:09.135Z,13.98
2024-05-09T00:05:37.464Z,14.43
2024-05-09T00:08:04.949Z,14.55
2024-05-09T00:10:36.677Z,13.50
2024-05-09T00:13:06.786Z,13.63
2024-05-09T00:15:34.345Z,14.02
2024-05-09T00:18:02.055Z,15.30
2024-05-09T00:20:37.327Z,13.07
2024-05-09T00:23:07.872Z,13.75
2024-05-09T00:25:35.500Z,14.38
2024-05-09T00:28:02.919Z,14.93
2024-05-09T00:30:34.615Z,14.60
2024-05-09T00:33:08.900Z,14.37
2024-05-09T00:35:37.358Z,13.80
2024-05-09T00:38:04.823Z,14.75
2024-05-09T00:40:41.885Z,14.82
2024-05-09T00:43:11.632Z,14.88
2024-05-09T00:45:39.210Z,14.52
2024-05-09T00:48:08.577Z,13.70
2024-05-09T00:50:40.460Z,14.43
2024-05-09T00:53:09.908Z,14.02
2024-05-09T00:55:38.940Z,13.75
2024-05-09T00:58:09.447Z,14.45
2024-05-09T01:00:39.919Z,14.75
2024-05-09T01:03:10.808Z,14.30
2024-05-09T01:05:40.189Z,15.50
2024-05-09T01:08:07.905Z,14.30
2024-05-09T01:10:36.279Z,15.50
2024-05-09T01:13:04.472Z,14.35
2024-05-09T01:15:31.529Z,15.43
2024-05-09T01:18:00.977Z,14.50
2024-05-09T01:20:37.419Z,14.65
2024-05-09T01:23:09.951Z,15.70
2024-05-09T01:25:37.352Z,15.05
2024-05-09T01:28:04.640Z,15.90
2024-05-09T01:30:35.167Z,14.93
2024-05-09T01:33:05.632Z,15.10
2024-05-09T01:35:33.843Z,16.65
2024-05-09T01:38:00.779Z,15.93
2024-05-09T01:40:36.404Z,15.43
2024-05-09T01:43:06.312Z,15.75
2024-05-09T01:45:33.318Z,14.90
2024-05-09T01:48:00.583Z,15.75
2024-05-09T01:52:57.467Z,15.93
2024-05-09T01:55:24.288Z,15.80
2024-05-09T01:57:51.414Z,16.27
2024-05-09T02:00:26.336Z,17.27
2024-05-09T02:03:01.765Z,17.33
2024-05-09T02:05:28.948Z,17.42
2024-05-09T02:07:55.859Z,16.95
2024-05-09T02:10:26.605Z,17.05
2024-05-09T02:12:59.064Z,18.23
2024-05-09T02:15:25.994Z,17.65
2024-05-09T02:17:53.095Z,19.17
2024-05-09T02:20:30.045Z,17.38
2024-05-09T02:23:04.093Z,16.77
2024-05-09T02:25:32.038Z,18.50
2024-05-09T02:27:59.065Z,17.80
2024-05-09T02:30:35.820Z,18.90
2024-05-09T02:33:07.787Z,18.00
2024-05-09T02:35:35.206Z,19.10
2024-05-09T02:38:02.237Z,18.13
2024-05-09T02:40:36.350Z,18.90
2024-05-09T02:43:10.392Z,19.13
2024-05-09T02:45:41.673Z,19.27
2024-05-09T02:48:13.229Z,19.02
2024-05-09T02:50:41.239Z,19.60
2024-05-09T02:53:09.496Z,19.08
2024-05-09T02:55:37.635Z,18.27
2024-05-09T02:58:04.767Z,18.35
2024-05-09T03:00:38.311Z,18.17
2024-05-09T03:03:09.469Z,18.45
2024-05-09T03:05:37.905Z,18.98
2024-05-09T03:08:05.236Z,17.92
2024-05-09T03:10:36.192Z,19.17
2024-05-09T03:13:13.913Z,18.80
2024-05-09T03:15:42.553Z,19.73
2024-05-09T03:18:09.927Z,19.55
2024-05-09T03:20:37.936Z,20.35
2024-05-09T03:23:07.540Z,19.52
2024-05-09T03:25:34.750Z,19.50
2024-05-09T03:28:01.682Z,18.95
2024-05-09T03:30:38.978Z,19.52
2024-05-09T03:33:20.074Z,17.77
2024-05-09T03:35:49.030Z,18.42
2024-05-09T03:38:16.496Z,18.92
2024-05-09T03:40:48.194Z,19.33
2024-05-09T03:43:16.190Z,19.42
2024-05-09T03:45:43.641Z,18.15
2024-05-09T03:48:11.145Z,18.77
2024-05-09T03:50:38.403Z,19.02
2024-05-09T03:53:05.787Z,18.15
2024-05-09T03:55:32.662Z,19.05
2024-05-09T03:57:59.659Z,17.80
2024-05-09T04:00:35.382Z,18.45
2024-05-09T04:03:07.775Z,17.80
2024-05-09T04:05:38.158Z,19.75
2024-05-09T04:08:05.753Z,19.10
2024-05-09T04:10:34.314Z,18.80
2024-05-09T04:13:03.039Z,19.52
2024-05-09T04:15:30.196Z,18.65
2024-05-09T04:17:57.256Z,18.98
2024-05-09T04:20:33.814Z,17.38
2024-05-09T04:23:07.025Z,17.25
2024-05-09T04:25:34.691Z,17.73
2024-05-09T04:28:01.608Z,18.15
2024-05-09T04:30:37.035Z,17.55
2024-05-09T04:33:08.870Z,18.52
2024-05-09T04:35:37.828Z,17.30
2024-05-09T04:38:05.521Z,17.38
2024-05-09T04:40:35.670Z,17.13
2024-05-09T04:43:05.213Z,17.08
2024-05-09T04:45:32.362Z,16.45
2024-05-09T04:47:59.552Z,16.67
2024-05-09T04:50:35.443Z,16.95
2024-05-09T04:53:06.006Z,16.55
2024-05-09T04:55:33.302Z,15.85
2024-05-09T04:58:00.313Z,17.65
2024-05-09T05:00:35.013Z,17.33
2024-05-09T05:03:10.499Z,16.88
2024-05-09T05:05:40.883Z,16.92
2024-05-09T05:08:12.372Z,16.85
2024-05-09T05:10:39.538Z,16.33
2024-05-09T05:13:25.103Z,16.48
2024-05-09T05:15:55.626Z,16.60
2024-05-09T05:18:23.413Z,16.00
2024-05-09T05:20:50.533Z,16.45
2024-05-09T05:23:21.382Z,16.23
2024-05-09T05:25:49.944Z,16.77
2024-05-09T05:28:17.490Z,15.80
2024-05-09T05:30:45.237Z,16.05
2024-05-09T05:33:13.979Z,15.02
2024-05-09T05:35:41.719Z,15.30
2024-05-09T05:38:09.730Z,15.90
2024-05-09T05:40:38.527Z,15.75
2024-05-09T05:43:08.663Z,16.67
2024-05-09T05:45:35.784Z,16.17
2024-05-09T05:48:07.014Z,14.75
2024-05-09T05:50:37.367Z,17.00
2024-05-09T05:53:07.387Z,15.45
2024-05-09T05:55:35.141Z,15.18
2024-05-09T05:58:02.961Z,15.60
2024-05-09T06:00:37.417Z,14.75
2024-05-09T06:03:06.693Z,14.65
2024-05-09T06:05:33.792Z,13.77
2024-05-09T06:08:00.965Z,14.95
2024-05-09T06:10:37.192Z,13.60
2024-05-09T06:13:06.792Z,14.45
2024-05-09T06:15:33.635Z,14.25
2024-05-09T06:18:00.897Z,14.93
2024-05-09T06:20:35.473Z,13.00
2024-05-09T06:23:09.003Z,13.73
2024-05-09T06:25:36.610Z,14.02
2024-05-09T06:28:04.099Z,14.30
2024-05-09T06:30:38.730Z,12.70
2024-05-09T06:33:10.619Z,13.70
2024-05-09T06:35:39.251Z,12.45
2024-05-09T06:38:09.230Z,13.48
2024-05-09T06:40:40.218Z,13.18
2024-05-09T06:43:13.369Z,13.80
2024-05-09T06:45:40.511Z,12.57
2024-05-09T06:48:09.118Z,13.25
2024-05-09T06:50:38.439Z,12.48
2024-05-09T06:53:09.885Z,13.15
2024-05-09T06:55:37.292Z,12.18
2024-05-09T06:58:06.401Z,12.32
2024-05-09T07:00:38.964Z,12.40
2024-05-09T07:03:09.283Z,12.10
2024-05-09T07:05:36.852Z,11.68
2024-05-09T07:08:05.172Z,11.43
2024-05-09T07:10:35.287Z,12.00
2024-05-09T07:13:03.536Z,11.73
2024-05-09T07:15:31.210Z,11.98
2024-05-09T07:17:58.648Z,11.48
2024-05-09T07:20:33.789Z,11.27
2024-05-09T07:23:03.266Z,10.85
2024-05-09T07:25:30.586Z,11.57
2024-05-09T07:27:57.728Z,11.20
2024-05-09T07:30:32.618Z,10.93
2024-05-09T07:33:02.345Z,11.07
2024-05-09T07:35:30.258Z,10.23
2024-05-09T07:37:57.837Z,10.77
2024-05-09T07:40:32.855Z,10.02
2024-05-09T07:43:04.057Z,10.35
2024-05-09T07:45:47.974Z,10.57
2024-05-09T07:52:38.995Z,10.20
2024-05-09T07:53:47.100Z,10.50
2024-05-09T07:56:18.574Z,9.85
2024-05-09T07:58:48.292Z,10.60
2024-05-09T08:01:15.486Z,9.98
2024-05-09T08:03:42.589Z,10.80
2024-05-09T08:06:28.123Z,10.35
2024-05-09T08:08:55.350Z,10.27
2024-05-09T08:11:23.906Z,10.25
2024-05-09T08:13:50.944Z,11.30
2024-05-09T08:16:21.353Z,11.15
2024-05-09T08:18:48.568Z,11.10
2024-05-09T08:21:16.069Z,10.80
2024-05-09T08:23:44.782Z,10.70
2024-05-09T08:26:12.957Z,10.23
2024-05-09T08:28:42.723Z,10.55
2024-05-09T08:31:24.376Z,11.32
2024-05-09T08:33:52.078Z,10.15
2024-05-09T08:36:20.203Z,9.75
2024-05-09T08:38:49.836Z,9.88
2024-05-09T08:41:22.429Z,10.48
2024-05-09T08:43:51.092Z,10.02
2024-05-09T08:46:19.157Z,10.57
2024-05-09T08:48:50.105Z,8.93
2024-05-09T08:51:34.416Z,10.60
2024-05-09T08:54:01.387Z,8.70
2024-05-09T08:56:36.298Z,9.95
2024-05-09T08:59:13.556Z,9.23
2024-05-09T09:01:43.390Z,9.93
2024-05-09T09:04:11.546Z,9.40
2024-05-09T09:06:39.897Z,9.18
2024-05-09T09:09:07.289Z,8.38
2024-05-09T09:11:34.157Z,8.48
2024-05-09T09:14:01.005Z,8.43
2024-05-09T09:16:35.256Z,8.98
2024-05-09T09:19:05.388Z,9.25
2024-05-09T09:21:32.421Z,8.40
2024-05-09T09:23:59.344Z,9.07
2024-05-09T09:26:26.288Z,8.60
2024-05-09T09:28:53.336Z,9.80
2024-05-09T09:31:20.347Z,9.23
2024-05-09T09:33:55.697Z,9.07
2024-05-09T09:36:22.911Z,9.80
2024-05-09T09:38:51.820Z,9.15
2024-05-09T09:41:20.848Z,9.30
2024-05-09T09:43:52.325Z,9.02
2024-05-09T09:46:21.963Z,8.35
2024-05-09T09:48:49.489Z,8.93
2024-05-09T09:51:16.871Z,9.00
2024-05-09T09:53:44.505Z,9.40
2024-05-09T09:56:18.103Z,9.38
2024-05-09T09:59:21.407Z,8.43
2024-05-09T10:02:08.692Z,7.72
2024-05-09T10:04:36.984Z,8.90
2024-05-09T10:07:09.282Z,8.48
2024-05-09T10:09:37.279Z,8.57
2024-05-09T10:12:14.899Z,7.88
2024-05-09T10:14:54.460Z,8.57
2024-05-09T10:17:21.486Z,7.88
2024-05-09T10:19:48.982Z,6.78
2024-05-09T10:22:27.787Z,6.15
2024-05-09T10:25:10.869Z,6.47
2024-05-09T10:27:38.054Z,7.28
2024-05-09T10:30:11.487Z,7.63
2024-05-09T10:32:41.799Z,6.07
2024-05-09T10:35:13.038Z,5.47
2024-05-09T10:37:39.988Z,5.82
2024-05-09T10:40:11.848Z,5.95
2024-05-09T10:42:42.023Z,6.57
2024-05-09T10:45:09.098Z,6.40
2024-05-09T10:47:36.903Z,5.70
2024-05-09T10:50:07.860Z,6.18
2024-05-09T10:52:41.798Z,5.72
2024-05-09T10:55:08.768Z,5.78
2024-05-09T10:57:42.219Z,5.63
2024-05-09T11:00:15.953Z,4.95
2024-05-09T11:02:50.410Z,5.35
2024-05-09T11:05:18.049Z,5.03
2024-05-09T11:07:45.330Z,5.22
2024-05-09T11:10:24.409Z,5.20
2024-05-09T11:12:54.710Z,4.88
2024-05-09T11:15:21.905Z,5.40
2024-05-09T11:17:48.956Z,4.82
2024-05-09T11:20:22.949Z,4.85
2024-05-09T11:22:58.057Z,5.20
2024-05-09T11:25:26.930Z,4.53
2024-05-09T11:27:53.879Z,4.35
2024-05-09T11:30:29.594Z,4.93
2024-05-09T11:32:59.336Z,5.38
2024-05-09T11:35:27.123Z,4.47
2024-05-09T11:37:54.224Z,4.78
2024-05-09T11:40:25.649Z,4.95
2024-05-09T17:03:18.412Z,2.92
2024-05-09T17:06:11.501Z,3.10
2024-05-09T17:09:21.759Z,2.90
2024-05-09T18:08:20.521Z,2.38
2024-05-09T18:34:41.599Z,2.50
2024-05-09T19:03:49.943Z,3.80
2024-05-09T19:09:21.403Z,4.28
2024-05-09T19:18:25.364Z,4.15
2024-05-09T19:20:52.398Z,4.07
2024-05-09T19:23:19.280Z,4.03
2024-05-09T19:25:46.139Z,3.65
2024-05-09T19:28:13.068Z,4.05
2024-05-09T19:30:42.239Z,4.13
2024-05-09T19:33:12.987Z,4.50
2024-05-09T19:35:40.818Z,4.30
2024-05-09T19:38:07.824Z,4.40
2024-05-09T19:40:35.545Z,4.50
2024-05-09T19:43:04.759Z,4.72
2024-05-09T19:45:33.369Z,4.35
2024-05-09T19:48:01.380Z,4.78
2024-05-09T19:50:36.991Z,4.35
2024-05-09T19:53:09.880Z,4.45
2024-05-09T19:55:37.151Z,4.68
2024-05-09T19:58:06.993Z,5.40
2024-05-09T20:00:36.983Z,4.40
2024-05-09T20:03:06.393Z,4.28
2024-05-09T20:05:34.149Z,4.35
2024-05-09T20:08:01.291Z,4.22
2024-05-09T20:10:32.530Z,4.40
2024-05-09T20:13:02.031Z,5.28
2024-05-09T20:15:29.286Z,4.90
2024-05-09T20:17:56.459Z,4.72
2024-05-09T20:20:33.363Z,4.97
2024-05-09T20:23:06.154Z,4.80
2024-05-09T20:25:33.286Z,4.70
2024-05-09T20:28:00.279Z,4.93
2024-05-09T20:30:32.131Z,4.75
2024-05-09T20:33:03.596Z,5.03
2024-05-09T20:35:32.423Z,5.20
2024-05-09T20:38:01.000Z,5.00
2024-05-09T20:40:32.849Z,4.80
2024-05-09T20:43:03.521Z,5.05
2024-05-09T20:45:30.417Z,4.78
2024-05-09T20:47:57.717Z,4.68
2024-05-09T20:50:35.461Z,5.43
2024-05-09T20:53:11.844Z,5.88
2024-05-09T20:55:39.744Z,5.13
2024-05-09T20:58:06.748Z,4.72
2024-05-09T21:00:39.994Z,5.10
2024-05-09T21:03:10.819Z,5.10
2024-05-09T21:05:38.386Z,4.88
2024-05-09T21:08:05.800Z,4.72
2024-05-09T21:10:34.045Z,5.10
2024-05-09T21:13:02.991Z,4.30
2024-05-09T21:15:30.768Z,5.30
2024-05-09T21:17:57.773Z,5.13
2024-05-09T21:20:30.943Z,4.97
2024-05-09T21:22:59.655Z,4.78
2024-05-09T21:25:26.687Z,4.88
2024-05-09T21:27:53.692Z,4.38
2024-05-09T21:30:32.288Z,4.55
2024-05-09T21:33:09.137Z,4.40
2024-05-09T21:35:37.012Z,4.85
2024-05-09T21:38:04.683Z,4.47
2024-05-09T21:40:34.981Z,4.90
2024-05-09T21:43:04.258Z,5.18
2024-05-09T21:45:31.636Z,5.38
2024-05-09T21:47:58.760Z,4.90
2024-05-09T21:50:32.480Z,4.97
2024-05-09T21:53:06.696Z,5.00
2024-05-09T21:55:33.760Z,4.43
2024-05-09T21:58:00.890Z,4.90
2024-05-09T22:00:35.457Z,5.00
2024-05-09T22:03:05.604Z,4.85
2024-05-09T22:05:32.975Z,4.57
2024-05-09T22:08:00.104Z,4.88
2024-05-09T22:10:33.370Z,4.78
2024-05-09T22:13:02.553Z,4.95
2024-05-09T22:15:29.486Z,4.57
2024-05-09T22:17:57.508Z,4.80
2024-05-09T22:20:34.061Z,4.82
2024-05-09T22:23:04.835Z,5.22
2024-05-09T22:25:32.558Z,5.50
2024-05-09T22:28:00.703Z,5.40
2024-05-09T22:30:35.575Z,4.88
2024-05-09T22:33:06.844Z,5.25
2024-05-09T22:35:33.928Z,4.95
2024-05-09T22:38:00.750Z,4.93
2024-05-09T22:40:38.466Z,4.28
2024-05-09T22:43:13.861Z,5.13
2024-05-09T22:45:41.274Z,4.88
2024-05-09T22:48:09.019Z,5.38
2024-05-09T22:50:36.236Z,4.60
2024-05-09T22:53:03.145Z,5.22
2024-05-09T22:55:30.350Z,4.88
2024-05-09T22:57:57.449Z,5.30
2024-05-09T23:02:54.374Z,5.00
2024-05-09T23:05:21.300Z,4.80
2024-05-09T23:07:48.166Z,4.60
2024-05-09T23:10:21.301Z,4.47
2024-05-09T23:12:55.207Z,4.90
2024-05-09T23:15:22.057Z,4.60
2024-05-09T23:17:49.082Z,4.97
2024-05-09T23:20:21.793Z,5.60
2024-05-09T23:22:56.262Z,5.50
2024-05-09T23:25:23.145Z,5.07
2024-05-09T23:27:50.038Z,5.30
2024-05-09T23:30:28.409Z,5.43
2024-05-09T23:33:01.583Z,5.32
2024-05-09T23:35:28.552Z,4.97
2024-05-09T23:37:55.462Z,5.20
2024-05-09T23:40:23.519Z,5.32
2024-05-09T23:42:59.634Z,5.75
2024-05-09T23:45:26.450Z,5.13
2024-05-09T23:47:53.818Z,4.95
2024-05-09T23:50:26.728Z,5.40
2024-05-09T23:53:00.469Z,4.78
2024-05-09T23:55:28.193Z,5.13
2024-05-09T23:57:55.460Z,5.45
